Time;durP1;ratioP1;P1;durP2;ratioP2;P2;SDS_P1;SDS_P2;PMS_P1;PMS_P2;Temp;Humidity;BMP_temperature;BMP_pressure;BME280_temperature;BME280_humidity;BME280_pressure;Samples;Min_cycle;Max_cycle;Signal;HPM_P1;HPM_P2
2022/02/13 00:00:07;;;;;;;;;;;;;;;0.76;84.42;101127.81;5057590;28;19928;-63
2022/02/13 00:02:33;;;;;;;;;;;;;;;0.74;84.44;101129.69;5073973;28;20396;-62
2022/02/13 00:04:59;;;;;;;;;;;;;;;0.75;84.50;101125.28;5091829;28;19916;-63
2022/02/13 00:07:24;;;;;;;;;;;;;;;0.77;84.63;101137.34;5073975;28;19916;-64
2022/02/13 00:09:49;;;;;;;;;;;;;;;0.74;84.40;101129.69;5092489;28;19915;-61
2022/02/13 00:12:15;;;;;;;;;;;;;;;0.75;84.71;101131.38;5092180;28;20010;-63
2022/02/13 00:14:41;;;;;;;;;;;;;;;0.78;84.55;101138.19;5091952;28;19947;-66
2022/02/13 00:17:07;;;;;;;;;;;;;;;0.78;84.36;101136.41;5090966;28;19919;-64
2022/02/13 00:19:32;;;;;;;;;;;;;;;0.73;84.82;101143.72;5092047;28;19923;-63
2022/02/13 00:21:58;;;;;;;;;;;;;;;0.74;84.52;101145.41;5092340;28;20002;-63
2022/02/13 00:24:23;;;;;;;;;;;;;;;0.72;84.57;101149.91;5091810;28;19916;-66
2022/02/13 00:26:48;;;;;;;;;;;;;;;0.75;84.52;101135.75;5092158;28;19963;-62
2022/02/13 00:29:14;;;;;;;;;;;;;;;0.72;84.71;101143.81;5090886;28;20290;-63
2022/02/13 00:31:39;;;;;;;;;;;;;;;0.74;84.82;101149.81;5094668;28;19916;-64
2022/02/13 00:34:05;;;;;;;;;;;;;;;0.77;84.59;101145.22;5077176;28;19920;-63
2022/02/13 00:36:31;;;;;;;;;;;;;;;0.78;84.87;101152.16;5060473;28;19915;-63
2022/02/13 00:38:57;;;;;;;;;;;;;;;0.74;84.62;101153.28;5076885;28;19939;-61
2022/02/13 00:41:47;;;;;;;;;;;;;;;0.73;84.47;101162.06;5095190;28;19973;-63
2022/02/13 00:44:13;;;;;;;;;;;;;;;0.75;84.89;101151.50;5094384;28;19923;-64
2022/02/13 00:46:39;;;;;;;;;;;;;;;0.74;84.68;101166.38;5077410;28;20337;-63
2022/02/13 00:49:05;;;;;;;;;;;;;;;0.79;84.42;101161.72;5093718;28;19916;-66
2022/02/13 00:51:30;;;;;;;;;;;;;;;0.80;84.70;101155.53;5077003;28;19915;-62
2022/02/13 00:53:56;;;;;;;;;;;;;;;0.78;84.97;101160.00;5077534;28;19924;-63
2022/02/13 00:56:21;;;;;;;;;;;;;;;0.81;84.76;101156.38;5094620;28;19916;-62
2022/02/13 00:58:47;;;;;;;;;;;;;;;0.80;84.98;101163.38;5093779;28;19923;-65
2022/02/13 01:01:12;;;;;;;;;;;;;;;0.83;84.77;101159.75;5076885;28;19915;-63
2022/02/13 01:03:38;;;;;;;;;;;;;;;0.83;84.50;101160.59;5076859;28;19919;-62
2022/02/13 01:06:03;;;;;;;;;;;;;;;0.83;84.65;101170.22;5095312;28;20276;-64
2022/02/13 01:08:29;;;;;;;;;;;;;;;0.82;84.59;101166.75;5095747;28;20280;-64
2022/02/13 01:10:54;;;;;;;;;;;;;;;0.83;84.46;101168.44;5095923;28;19916;-62
2022/02/13 01:13:20;;;;;;;;;;;;;;;0.83;84.12;101167.59;5095877;28;19919;-63
2022/02/13 01:15:45;;;;;;;;;;;;;;;0.83;84.57;101178.09;5095524;28;19919;-64
2022/02/13 01:18:11;;;;;;;;;;;;;;;0.80;84.09;101179.13;5095816;28;19920;-62
2022/02/13 01:20:36;;;;;;;;;;;;;;;0.79;84.57;101177.44;5095910;28;19916;-63
2022/02/13 01:23:02;;;;;;;;;;;;;;;0.77;84.60;101174.06;5095847;28;20015;-63
2022/02/13 01:25:27;;;;;;;;;;;;;;;0.77;84.42;101181.94;5095637;28;19919;-64
2022/02/13 01:27:52;;;;;;;;;;;;;;;0.80;84.37;101175.66;5095231;28;19923;-64
2022/02/13 01:30:18;;;;;;;;;;;;;;;0.83;84.39;101165.84;5095218;28;19915;-63
2022/02/13 01:32:43;;;;;;;;;;;;;;;0.86;84.15;101168.25;5095382;28;19916;-65
2022/02/13 01:35:09;;;;;;;;;;;;;;;0.86;84.03;101168.25;5095040;28;20403;-63
2022/02/13 01:37:35;;;;;;;;;;;;;;;0.89;83.84;101175.13;5095519;28;20424;-62
2022/02/13 01:40:01;;;;;;;;;;;;;;;0.85;84.06;101182.31;5094995;28;19970;-65
2022/02/13 01:42:27;;;;;;;;;;;;;;;0.84;84.29;101178.00;5094961;28;19920;-65
2022/02/13 01:44:53;;;;;;;;;;;;;;;0.84;84.54;101174.53;5095127;28;19923;-60
2022/02/13 01:47:18;;;;;;;;;;;;;;;0.83;84.51;101184.19;5094831;28;20027;-64
2022/02/13 01:49:44;;;;;;;;;;;;;;;0.78;84.73;101181.00;5094690;28;20378;-64
2022/02/13 01:52:09;;;;;;;;;;;;;;;0.78;84.84;101183.63;5094725;28;19916;-63
2022/02/13 01:54:34;;;;;;;;;;;;;;;0.77;84.80;101181.94;5076771;28;19959;-64
2022/02/13 01:57:01;;;;;;;;;;;;;;;0.76;84.93;101179.41;5094745;28;19919;-62
2022/02/13 01:59:27;;;;;;;;;;;;;;;0.76;85.10;101190.72;5094869;28;19920;-60
2022/02/13 02:01:52;;;;;;;;;;;;;;;0.80;85.14;101176.50;5093983;28;19916;-63
2022/02/13 02:04:19;;;;;;;;;;;;;;;0.82;84.88;101189.53;5075458;28;19923;-63
2022/02/13 02:06:44;;;;;;;;;;;;;;;0.79;85.04;101198.41;5075202;28;20267;-64
2022/02/13 02:09:10;;;;;;;;;;;;;;;0.76;85.42;101190.72;5075260;28;19916;-65
2022/02/13 02:11:36;;;;;;;;;;;;;;;0.77;85.55;101188.94;5075339;28;20027;-63
2022/02/13 02:14:01;;;;;;;;;;;;;;;0.76;85.36;101189.88;5075356;28;19920;-65
2022/02/13 02:16:27;;;;;;;;;;;;;;;0.74;85.14;101179.50;5075496;28;19916;-63
2022/02/13 02:18:53;;;;;;;;;;;;;;;0.70;85.87;101191.09;5075287;28;20383;-64
2022/02/13 02:21:18;;;;;;;;;;;;;;;0.65;86.12;101174.78;5093393;28;19923;-64
2022/02/13 02:23:44;;;;;;;;;;;;;;;0.64;86.24;101183.59;5075088;28;19916;-62
2022/02/13 02:26:09;;;;;;;;;;;;;;;0.60;86.70;101182.94;5074929;28;19923;-66
2022/02/13 02:28:35;;;;;;;;;;;;;;;0.62;86.26;101188.06;5075172;28;20307;-64
2022/02/13 02:31:01;;;;;;;;;;;;;;;0.61;85.93;101189.00;5058281;28;20022;-63
2022/02/13 02:33:27;;;;;;;;;;;;;;;0.59;86.75;101188.25;5075021;28;19955;-61
2022/02/13 02:35:53;;;;;;;;;;;;;;;0.58;87.09;101192.66;5058425;28;19969;-63
2022/02/13 02:38:18;;;;;;;;;;;;;;;0.61;86.71;101194.25;5092628;28;19916;-63
2022/02/13 02:40:44;;;;;;;;;;;;;;;0.61;86.76;101192.47;5075150;28;19955;-63
2022/02/13 02:43:09;;;;;;;;;;;;;;;0.60;86.61;101189.94;5074850;28;20035;-64
2022/02/13 02:45:35;;;;;;;;;;;;;;;0.59;86.54;101183.00;5074674;28;20022;-63
2022/02/13 02:48:01;;;;;;;;;;;;;;;0.60;87.07;101196.03;5058709;28;19920;-62
2022/02/13 02:50:26;;;;;;;;;;;;;;;0.58;87.40;101191.81;5092846;28;20033;-63
2022/02/13 02:52:52;;;;;;;;;;;;;;;0.59;87.03;101188.25;5091467;28;19916;-65
2022/02/13 02:55:17;;;;;;;;;;;;;;;0.54;87.46;101192.88;5075158;28;19923;-62
2022/02/13 02:57:43;;;;;;;;;;;;;;;0.55;87.82;101195.41;5091578;28;19923;-64
2022/02/13 03:00:08;;;;;;;;;;;;;;;0.50;88.22;101188.75;5075334;28;19916;-64
2022/02/13 03:02:34;;;;;;;;;;;;;;;0.49;88.26;101194.94;5058535;28;20010;-64
2022/02/13 03:04:59;;;;;;;;;;;;;;;0.43;87.96;101193.50;5075246;28;19916;-64
2022/02/13 03:07:25;;;;;;;;;;;;;;;0.38;88.45;101192.94;5075828;28;19954;-64
2022/02/13 03:09:50;;;;;;;;;;;;;;;0.35;88.69;101200.13;5094474;28;20022;-64
2022/02/13 03:12:16;;;;;;;;;;;;;;;0.35;88.29;101189.66;5094203;28;20291;-61
2022/02/13 03:14:42;;;;;;;;;;;;;;;0.32;88.46;101189.81;5093803;28;19920;-65
2022/02/13 03:17:07;;;;;;;;;;;;;;;0.36;88.57;101191.34;5075411;28;19922;-63
2022/02/13 03:19:33;;;;;;;;;;;;;;;0.39;88.37;101193.78;5094569;28;19916;-63
2022/02/13 03:21:59;;;;;;;;;;;;;;;0.37;88.17;101193.88;5093733;28;19916;-61
2022/02/13 03:24:24;;;;;;;;;;;;;;;0.39;88.32;101185.91;5094147;28;20325;-62
2022/02/13 03:26:50;;;;;;;;;;;;;;;0.38;88.08;101182.47;5093721;28;19916;-64
2022/02/13 03:29:15;;;;;;;;;;;;;;;0.40;87.86;101185.84;5093514;28;20028;-63
2022/02/13 03:31:41;;;;;;;;;;;;;;;0.39;88.35;101178.91;5074899;28;19980;-62
2022/02/13 03:34:06;;;;;;;;;;;;;;;0.38;88.09;101186.84;5093085;28;19915;-66
2022/02/13 03:36:31;;;;;;;;;;;;;;;0.41;88.28;101189.28;5093051;28;19916;-62
2022/02/13 03:38:58;;;;;;;;;;;;;;;0.40;88.21;101179.75;5092921;28;19923;-63
2022/02/13 03:41:24;;;;;;;;;;;;;;;0.39;88.42;101186.75;5093431;28;19919;-61
2022/02/13 03:43:50;;;;;;;;;;;;;;;0.43;88.25;101188.28;5093033;28;19927;-63
2022/02/13 03:46:15;;;;;;;;;;;;;;;0.46;88.19;101187.25;5093362;28;20291;-62
2022/02/13 03:48:40;;;;;;;;;;;;;;;0.47;88.15;101188.94;5093245;28;19916;-65
2022/02/13 03:51:06;;;;;;;;;;;;;;;0.46;88.12;101187.25;5093118;28;19946;-63
2022/02/13 03:53:31;;;;;;;;;;;;;;;0.42;88.05;101186.59;5092991;28;20390;-64
2022/02/13 03:55:56;;;;;;;;;;;;;;;0.45;88.17;101186.41;5093001;28;19977;-63
2022/02/13 03:58:22;;;;;;;;;;;;;;;0.48;87.96;101181.00;5092602;28;19916;-62
2022/02/13 04:00:47;;;;;;;;;;;;;;;0.50;88.30;101181.75;5092140;28;19951;-63
2022/02/13 04:03:13;;;;;;;;;;;;;;;0.55;88.14;101191.97;5090968;28;21054;-64
2022/02/13 04:05:39;;;;;;;;;;;;;;;0.60;88.04;101189.94;5073436;28;19916;-65
2022/02/13 04:08:04;;;;;;;;;;;;;;;0.62;87.94;101188.06;5092106;28;19916;-63
2022/02/13 04:10:32;;;;;;;;;;;;;;;0.65;87.66;101187.91;5057027;28;19919;-64
2022/02/13 04:12:58;;;;;;;;;;;;;;;0.65;87.63;101187.91;5073532;28;19916;-64
2022/02/13 04:15:24;;;;;;;;;;;;;;;0.66;87.46;101188.75;5092352;28;19927;-65
2022/02/13 04:17:50;;;;;;;;;;;;;;;0.69;87.32;101192.03;5056559;28;19970;-63
2022/02/13 04:20:16;;;;;;;;;;;;;;;0.69;87.49;101189.41;5092384;28;19943;-64
2022/02/13 04:22:41;;;;;;;;;;;;;;;0.69;87.18;101193.81;5074526;28;19916;-63
2022/02/13 04:25:08;;;;;;;;;;;;;;;0.70;86.98;101196.34;5092115;28;19962;-64
2022/02/13 04:27:35;;;;;;;;;;;;;;;0.71;86.94;101192.78;5074426;28;19916;-61
2022/02/13 04:30:00;;;;;;;;;;;;;;;0.72;86.60;101194.47;5091101;28;19916;-67
2022/02/13 04:32:26;;;;;;;;;;;;;;;0.75;86.61;101194.28;5074448;28;19915;-62
2022/02/13 04:34:51;;;;;;;;;;;;;;;0.74;86.24;101197.84;5074215;28;19916;-62
2022/02/13 04:37:17;;;;;;;;;;;;;;;0.72;86.03;101196.25;5092403;28;19959;-62
2022/02/13 04:39:46;;;;;;;;;;;;;;;0.73;85.82;101196.16;5091041;28;19947;-62
2022/02/13 04:42:12;;;;;;;;;;;;;;;0.71;85.80;101208.50;5074784;28;19927;-64
2022/02/13 04:44:38;;;;;;;;;;;;;;;0.68;86.18;101207.84;5057744;28;19922;-63
2022/02/13 04:47:03;;;;;;;;;;;;;;;0.63;86.31;101205.50;5076580;28;19980;-63
2022/02/13 04:49:29;;;;;;;;;;;;;;;0.58;86.51;101208.38;5092839;28;19927;-64
2022/02/13 04:51:54;;;;;;;;;;;;;;;0.58;87.04;101210.16;5091808;28;19920;-64
2022/02/13 04:54:19;;;;;;;;;;;;;;;0.59;86.94;101210.06;5093653;28;19916;-64
2022/02/13 04:56:45;;;;;;;;;;;;;;;0.63;86.81;101207.28;5092734;28;19962;-64
2022/02/13 04:59:10;;;;;;;;;;;;;;;0.57;86.78;101208.44;5092472;28;20414;-64
2022/02/13 05:01:36;;;;;;;;;;;;;;;0.55;86.84;101211.16;5092712;28;20389;-63
2022/02/13 05:04:01;;;;;;;;;;;;;;;0.53;86.92;101204.31;5092192;28;19923;-64
2022/02/13 05:06:27;;;;;;;;;;;;;;;0.54;86.92;101200.75;5092362;28;19922;-63
2022/02/13 05:08:56;;;;;;;;;;;;;;;0.55;86.68;101197.19;5092374;28;19916;-65
2022/02/13 05:11:21;;;;;;;;;;;;;;;0.57;86.76;101188.31;5092154;28;19916;-64
2022/02/13 05:13:47;;;;;;;;;;;;;;;0.60;86.87;101192.56;5091530;28;19915;-64
2022/02/13 05:16:12;;;;;;;;;;;;;;;0.36;86.87;101154.66;5075480;28;19971;-67
2022/02/13 05:18:38;;;;;;;;;;;;;;;0.53;86.62;101188.59;5095581;28;19927;-64
2022/02/13 05:21:03;;;;;;;;;;;;;;;0.49;86.81;101185.28;5095332;28;20298;-64
2022/02/13 05:23:28;;;;;;;;;;;;;;;0.51;87.14;101191.28;5095329;28;19920;-62
2022/02/13 05:25:54;;;;;;;;;;;;;;;0.54;87.03;101190.28;5076798;28;19916;-64
2022/02/13 05:28:19;;;;;;;;;;;;;;;0.53;87.10;101191.19;5095125;28;19916;-65
2022/02/13 05:30:45;;;;;;;;;;;;;;;0.53;87.14;101188.59;5095066;28;19916;-63
2022/02/13 05:33:10;;;;;;;;;;;;;;;0.52;87.43;101197.38;5077004;28;19922;-65
2022/02/13 05:35:36;;;;;;;;;;;;;;;0.48;87.44;101206.34;5093747;28;19920;-62
2022/02/13 05:38:01;;;;;;;;;;;;;;;0.39;87.44;101189.38;5095207;28;19922;-61
2022/02/13 05:40:27;;;;;;;;;;;;;;;0.38;87.57;101190.31;5094758;28;19920;-63
2022/02/13 05:42:52;;;;;;;;;;;;;;;0.41;87.08;101190.13;5094907;28;19974;-63
2022/02/13 05:45:18;;;;;;;;;;;;;;;0.40;87.63;101187.59;5095131;28;19923;-64
2022/02/13 05:47:46;;;;;;;;;;;;;;;0.39;87.45;101178.06;5095360;28;19923;-65
2022/02/13 05:50:12;;;;;;;;;;;;;;;0.39;87.63;101192.00;5092945;28;19919;-63
2022/02/13 05:52:38;;;;;;;;;;;;;;;0.38;87.63;101189.47;5094299;28;19954;-65
2022/02/13 05:55:04;;;;;;;;;;;;;;;0.40;87.62;101188.44;5100579;28;19915;-63
2022/02/13 05:57:30;;;;;;;;;;;;;;;0.40;87.58;101185.00;5070317;28;19920;-64
2022/02/13 05:59:55;;;;;;;;;;;;;;;0.45;87.65;101188.19;5067542;28;20011;-65
2022/02/13 06:02:21;;;;;;;;;;;;;;;0.42;87.41;101188.38;5048107;28;19916;-65
2022/02/13 06:04:46;;;;;;;;;;;;;;;0.41;87.63;101181.44;5094002;28;19916;-63
2022/02/13 06:07:12;;;;;;;;;;;;;;;0.40;87.64;101169.28;5094340;28;19923;-61
2022/02/13 06:09:37;;;;;;;;;;;;;;;0.49;87.41;101187.06;5075979;28;19920;-64
2022/02/13 06:12:03;;;;;;;;;;;;;;;0.43;87.42;101184.81;5094009;28;20291;-65
2022/02/13 06:14:28;;;;;;;;;;;;;;;0.44;87.41;101186.50;5075873;28;20287;-63
2022/02/13 06:16:57;;;;;;;;;;;;;;;0.45;87.65;101186.41;5093727;28;19920;-63
2022/02/13 06:19:22;;;;;;;;;;;;;;;0.46;86.94;101189.88;5093968;28;19923;-63
2022/02/13 06:21:49;;;;;;;;;;;;;;;0.48;86.78;101191.47;5075615;28;19916;-65
2022/02/13 06:24:14;;;;;;;;;;;;;;;0.50;87.10;101188.75;5075670;28;19923;-64
2022/02/13 06:26:39;;;;;;;;;;;;;;;0.47;86.88;101178.47;5075215;28;20328;-65
2022/02/13 06:29:05;;;;;;;;;;;;;;;0.49;86.56;101184.47;5092947;28;20325;-64
2022/02/13 06:31:30;;;;;;;;;;;;;;;0.48;86.95;101185.38;5093917;28;20379;-64
2022/02/13 06:33:56;;;;;;;;;;;;;;;0.47;86.73;101181.09;5086138;28;19927;-62
2022/02/13 06:36:21;;;;;;;;;;;;;;;0.45;86.71;101185.56;5083990;28;20304;-62
2022/02/13 06:38:47;;;;;;;;;;;;;;;0.49;86.70;101187.06;5081790;28;20353;-61
2022/02/13 06:41:13;;;;;;;;;;;;;;;0.46;86.57;101187.25;5027622;28;19920;-63
2022/02/13 06:43:38;;;;;;;;;;;;;;;0.50;86.75;101188.75;5062556;28;19935;-64
2022/02/13 06:46:04;;;;;;;;;;;;;;;0.52;86.34;101182.50;5063535;28;19955;-68
2022/02/13 06:48:31;;;;;;;;;;;;;;;0.55;85.71;101178.84;5064500;28;20293;-65
2022/02/13 06:50:57;;;;;;;;;;;;;;;0.57;85.49;101179.59;5060198;28;20378;-65
2022/02/13 06:53:23;;;;;;;;;;;;;;;0.59;85.39;101176.00;5063232;28;19959;-63
2022/02/13 06:55:49;;;;;;;;;;;;;;;0.59;84.91;101177.78;5061300;28;19917;-63
2022/02/13 06:58:14;;;;;;;;;;;;;;;0.60;85.06;101184.69;5064205;28;19916;-63
2022/02/13 07:00:40;;;;;;;;;;;;;;;0.64;84.95;101180.13;5064309;28;19916;-66
2022/02/13 07:03:07;;;;;;;;;;;;;;;0.65;84.36;101181.81;5023399;28;19931;-61
2022/02/13 07:05:32;;;;;;;;;;;;;;;0.62;83.98;101172.34;5062935;28;19916;-71
2022/02/13 07:07:57;;;;;;;;;;;;;;;0.61;84.34;101175.91;5044665;28;20007;-67
2022/02/13 07:10:23;;;;;;;;;;;;;;;0.65;84.03;101171.31;5051200;28;20379;-63
2022/02/13 07:12:48;;;;;;;;;;;;;;;0.69;83.87;101184.16;5063845;28;19920;-67
2022/02/13 07:15:14;;;;;;;;;;;;;;;0.68;83.50;101177.22;5061921;28;19920;-65
2022/02/13 07:18:04;;;;;;;;;;;;;;;0.65;83.31;101176.56;5060854;28;20368;-66
2022/02/13 07:20:30;;;;;;;;;;;;;;;0.68;83.14;101179.84;5041115;28;20031;-66
2022/02/13 07:22:56;;;;;;;;;;;;;;;0.70;82.97;101164.88;5025098;28;20409;-68
2022/02/13 07:25:22;;;;;;;;;;;;;;;0.74;82.32;101165.53;5042617;28;19952;-66
2022/02/13 07:27:48;;;;;;;;;;;;;;;0.75;82.29;101157.56;5040817;28;19956;-65
2022/02/13 07:30:13;;;;;;;;;;;;;;;0.76;81.98;101159.25;5060804;28;19921;-64
2022/02/13 07:32:43;;;;;;;;;;;;;;;0.82;81.77;101161.53;5061973;28;19962;-65
2022/02/13 07:35:09;;;;;;;;;;;;;;;0.83;81.40;101165.84;5063028;28;19923;-65
2022/02/13 07:37:35;;;;;;;;;;;;;;;0.82;81.85;101164.13;5042082;28;20307;-66
2022/02/13 07:40:04;;;;;;;;;;;;;;;0.76;81.71;101151.41;5061841;28;20019;-65
2022/02/13 07:42:33;;;;;;;;;;;;;;;0.71;82.31;101158.69;5062816;28;19992;-63
2022/02/13 07:44:59;;;;;;;;;;;;;;;0.73;82.00;101148.13;5054489;28;19959;-66
2022/02/13 07:47:25;;;;;;;;;;;;;;;0.75;82.10;101148.88;5052249;28;19960;-64
2022/02/13 07:49:50;;;;;;;;;;;;;;;0.85;82.38;101142.97;5060862;28;19920;-64
2022/02/13 07:52:15;;;;;;;;;;;;;;;0.88;82.18;101145.44;5040137;28;19935;-73
2022/02/13 07:54:41;;;;;;;;;;;;;;;0.95;82.06;101147.69;5041905;28;19916;-70
2022/02/13 07:57:06;;;;;;;;;;;;;;;0.97;81.81;101140.59;5059290;28;19920;-72
2022/02/13 07:59:32;;;;;;;;;;;;;;;1.01;82.11;101142.09;5044376;28;20018;-71
2022/02/13 08:02:00;;;;;;;;;;;;;;;1.02;81.50;101135.91;5051764;28;19916;-70
2022/02/13 08:04:26;;;;;;;;;;;;;;;0.99;81.82;101136.94;5066323;28;20375;-68
2022/02/13 08:06:52;;;;;;;;;;;;;;;1.06;82.86;101142.66;5064542;28;19954;-69
2022/02/13 08:09:17;;;;;;;;;;;;;;;1.04;82.33;101137.50;5071555;28;19916;-68
2022/02/13 08:11:43;;;;;;;;;;;;;;;1.09;82.82;101134.59;5047690;28;19917;-67
2022/02/13 08:14:08;;;;;;;;;;;;;;;1.13;82.03;101136.94;5043115;28;19961;-65
2022/02/13 08:16:33;;;;;;;;;;;;;;;1.22;82.54;101130.28;5060084;28;20375;-65
2022/02/13 08:19:00;;;;;;;;;;;;;;;1.34;82.96;101132.16;5059955;28;19921;-65
2022/02/13 08:21:25;;;;;;;;;;;;;;;1.35;81.35;101133.00;5063019;28;20478;-64
2022/02/13 08:23:51;;;;;;;;;;;;;;;1.27;81.88;101128.22;5064318;28;20015;-63
2022/02/13 08:26:17;;;;;;;;;;;;;;;1.20;81.15;101137.41;5036178;28;19932;-67
2022/02/13 08:28:43;;;;;;;;;;;;;;;1.15;81.69;101139.44;5059899;28;19916;-65
2022/02/13 08:31:08;;;;;;;;;;;;;;;1.12;81.91;101135.25;5039068;28;19917;-64
2022/02/13 08:33:33;;;;;;;;;;;;;;;1.11;81.92;101143.19;5059415;28;19916;-64
2022/02/13 08:35:59;;;;;;;;;;;;;;;1.08;81.79;101146.84;5038419;28;19917;-64
2022/02/13 08:38:24;;;;;;;;;;;;;;;1.03;81.87;101134.97;5058036;28;19939;-64
2022/02/13 08:40:52;;;;;;;;;;;;;;;1.02;81.95;101133.28;5064184;28;19943;-67
2022/02/13 08:43:18;;;;;;;;;;;;;;;1.08;81.79;101127.66;5051787;28;20380;-64
2022/02/13 08:45:45;;;;;;;;;;;;;;;1.06;82.12;101129.53;5052204;28;19938;-68
2022/02/13 08:48:11;;;;;;;;;;;;;;;1.08;82.33;101127.66;5051928;28;19952;-67
2022/02/13 08:50:36;;;;;;;;;;;;;;;1.08;82.31;101127.66;5058253;28;19989;-68
2022/02/13 08:53:02;;;;;;;;;;;;;;;1.05;82.19;101127.84;5038680;28;19948;-67
2022/02/13 08:55:28;;;;;;;;;;;;;;;1.01;82.80;101127.19;5019045;28;19921;-68
2022/02/13 08:57:53;;;;;;;;;;;;;;;1.01;83.16;101121.09;5055231;28;20372;-68
2022/02/13 09:00:19;;;;;;;;;;;;;;;0.97;82.73;101119.59;5049575;28;19966;-71
2022/02/13 09:02:45;;;;;;;;;;;;;;;0.91;83.65;101113.78;5043310;28;19976;-66
2022/02/13 09:05:22;;;;;;;;;;;;;;;0.90;83.38;101114.72;5051031;28;19917;-68
2022/02/13 09:07:50;;;;;;;;;;;;;;;0.86;83.29;101117.59;5037635;28;20038;-70
2022/02/13 09:10:16;;;;;;;;;;;;;;;0.81;83.40;101115.25;5036098;28;19921;-67
2022/02/13 09:12:42;;;;;;;;;;;;;;;0.82;84.22;101116.94;5056722;28;20372;-65
2022/02/13 09:15:11;;;;;;;;;;;;;;;0.91;84.27;101111.19;5034099;28;20372;-67
2022/02/13 09:17:37;;;;;;;;;;;;;;;0.75;84.25;101078.09;5068626;28;20408;-68
2022/02/13 09:20:47;;;;;;;;;;;;;;;0.93;84.01;101104.06;5048193;28;20299;-71
2022/02/13 09:23:13;;;;;;;;;;;;;;;0.89;84.18;101102.56;5054865;28;19924;-69
2022/02/13 09:25:40;;;;;;;;;;;;;;;0.84;84.27;101090.63;5057088;28;20295;-66
2022/02/13 09:28:08;;;;;;;;;;;;;;;0.85;83.94;101098.41;5033684;28;19917;-67
2022/02/13 09:30:33;;;;;;;;;;;;;;;0.90;84.51;101078.03;5052656;28;19940;-66
2022/02/13 09:32:59;;;;;;;;;;;;;;;0.97;84.25;101077.63;5068079;28;20402;-68
2022/02/13 09:35:24;;;;;;;;;;;;;;;0.87;83.70;101078.22;5074821;28;19927;-66
2022/02/13 09:37:50;;;;;;;;;;;;;;;0.83;84.25;101086.31;5053398;28;20291;-71
2022/02/13 09:40:20;;;;;;;;;;;;;;;0.80;84.44;101087.34;5082283;28;20349;-66
2022/02/13 09:42:47;;;;;;;;;;;;;;;0.76;84.01;101080.63;5094720;28;19920;-65
2022/02/13 09:45:12;;;;;;;;;;;;;;;0.67;84.33;101078.56;5095121;28;19959;-66
2022/02/13 09:47:38;;;;;;;;;;;;;;;0.64;85.09;101076.13;5094867;28;20020;-64
2022/02/13 09:50:04;;;;;;;;;;;;;;;0.64;85.46;101070.88;5094580;28;19916;-67
2022/02/13 09:52:30;;;;;;;;;;;;;;;0.65;85.67;101067.31;5094393;28;19915;-66
2022/02/13 09:54:55;;;;;;;;;;;;;;;0.69;85.79;101066.19;5094152;28;19923;-65
2022/02/13 10:00:05;;;;;;;;;;;;;;;0.78;85.58;101063.00;5094221;28;20035;-68
2022/02/13 10:02:41;;;;;;;;;;;;;;;0.75;85.36;101073.69;5076103;28;20039;-66
2022/02/13 10:05:11;;;;;;;;;;;;;;;0.76;85.29;101072.75;5094263;28;20417;-68
2022/02/13 10:07:37;;;;;;;;;;;;;;;0.78;85.24;101072.66;5084556;28;20358;-68
2022/02/13 10:10:05;;;;;;;;;;;;;;;0.74;84.95;101074.63;5074512;28;19974;-66
2022/02/13 10:12:31;;;;;;;;;;;;;;;0.70;84.33;101069.66;5074023;28;19916;-69
2022/02/13 10:14:56;;;;;;;;;;;;;;;0.72;84.29;101073.88;5074105;28;19921;-66
2022/02/13 10:17:22;;;;;;;;;;;;;;;0.76;84.29;101070.13;5074464;28;19923;-65
2022/02/13 10:19:56;;;;;;;;;;;;;;;0.78;84.30;101062.16;5074626;28;19916;-67
2022/02/13 10:22:37;;;;;;;;;;;;;;;0.87;84.34;101057.22;5073276;28;19927;-73
2022/02/13 10:25:13;;;;;;;;;;;;;;;0.85;83.62;101056.47;5055847;28;20295;-67
2022/02/13 10:27:48;;;;;;;;;;;;;;;0.88;83.61;101043.19;5055816;28;20023;-65
2022/02/13 10:30:34;;;;;;;;;;;;;;;0.90;83.04;101040.47;5076230;28;19938;-66
2022/02/13 10:33:22;;;;;;;;;;;;;;;0.88;81.49;101032.69;5076965;28;19927;-66
2022/02/13 10:36:01;;;;;;;;;;;;;;;0.97;82.08;101039.16;5077580;28;19920;-63
2022/02/13 10:38:30;;;;;;;;;;;;;;;1.08;81.76;101026.19;5114459;28;20360;-64
2022/02/13 10:41:12;;;;;;;;;;;;;;;1.16;81.24;101026.59;5094945;28;20403;-64
2022/02/13 10:43:56;;;;;;;;;;;;;;;1.15;80.37;101032.75;5114097;28;19972;-67
2022/02/13 10:46:22;;;;;;;;;;;;;;;1.11;80.42;101027.78;5095846;28;20064;-65
2022/02/13 10:48:47;;;;;;;;;;;;;;;1.11;80.58;101025.16;5114154;28;20009;-66
2022/02/13 10:51:13;;;;;;;;;;;;;;;1.15;79.95;101024.03;5113716;28;20059;-67
2022/02/13 10:53:40;;;;;;;;;;;;;;;1.17;79.68;101022.19;5113416;28;20404;-63
2022/02/13 10:56:06;;;;;;;;;;;;;;;1.15;79.28;101024.03;5112105;28;19968;-66
2022/02/13 10:58:32;;;;;;;;;;;;;;;1.20;79.03;101028.06;5087923;28;19916;-74
2022/02/13 11:01:00;;;;;;;;;;;;;;;1.18;78.11;101027.34;5092678;28;20114;-69
2022/02/13 11:03:30;;;;;;;;;;;;;;;1.14;78.11;101022.34;5085056;28;20148;-72
2022/02/13 11:05:56;;;;;;;;;;;;;;;1.17;78.60;101014.31;5061244;28;20012;-71
2022/02/13 11:08:22;;;;;;;;;;;;;;;1.27;78.65;100997.03;5089684;28;19970;-66
2022/02/13 11:10:49;;;;;;;;;;;;;;;1.40;77.36;100997.94;5098448;28;20465;-67
2022/02/13 11:13:16;;;;;;;;;;;;;;;1.44;76.87;101009.91;5107338;28;20283;-69
2022/02/13 11:15:42;;;;;;;;;;;;;;;1.44;76.93;101007.28;5113113;28;20015;-67
2022/02/13 11:18:09;;;;;;;;;;;;;;;1.38;76.59;100993.72;5109521;28;20017;-65
2022/02/13 11:20:35;;;;;;;;;;;;;;;1.38;76.97;100984.06;5093915;28;19955;-67
2022/02/13 11:23:19;;;;;;;;;;;;;;;1.38;76.52;100984.06;5091621;28;19919;-64
2022/02/13 11:25:58;;;;;;;;;;;;;;;1.40;76.07;100991.84;5090606;28;19951;-67
2022/02/13 11:28:26;;;;;;;;;;;;;;;1.38;76.31;100986.69;5091693;28;19916;-66
2022/02/13 11:30:53;;;;;;;;;;;;;;;1.27;75.92;100986.53;5092722;28;19922;-65
2022/02/13 11:33:30;;;;;;;;;;;;;;;1.19;76.06;100988.81;5092987;28;19916;-65
2022/02/13 11:36:04;;;;;;;;;;;;;;;1.14;76.01;100975.97;5058181;28;19970;-65
2022/02/13 11:38:47;;;;;;;;;;;;;;;1.12;75.60;100961.28;5093153;28;19915;-66
2022/02/13 11:41:19;;;;;;;;;;;;;;;1.16;75.30;100955.75;5092162;28;19916;-67
2022/02/13 11:43:49;;;;;;;;;;;;;;;1.14;75.28;100960.22;5092405;28;19920;-65
2022/02/13 11:46:21;;;;;;;;;;;;;;;1.12;75.50;100956.88;5092562;28;19923;-67
2022/02/13 11:48:55;;;;;;;;;;;;;;;1.13;75.42;100944.59;5092684;28;19916;-65
2022/02/13 11:51:41;;;;;;;;;;;;;;;1.12;74.87;100938.50;5092533;28;19916;-67
2022/02/13 11:54:06;;;;;;;;;;;;;;;1.23;75.19;100932.59;5092591;28;19916;-66
2022/02/13 11:56:32;;;;;;;;;;;;;;;1.29;75.42;100926.94;5092438;28;20345;-66
2022/02/13 11:58:57;;;;;;;;;;;;;;;1.25;74.34;100920.22;5092549;28;19962;-66
2022/02/13 12:01:35;;;;;;;;;;;;;;;1.22;73.60;100917.78;5092922;28;19920;-65
2022/02/13 12:04:00;;;;;;;;;;;;;;;1.17;73.58;100917.25;5092472;28;19926;-65
2022/02/13 12:06:26;;;;;;;;;;;;;;;1.12;73.42;100914.06;5092230;28;20121;-66
2022/02/13 12:08:55;;;;;;;;;;;;;;;1.15;73.74;100917.31;5074215;28;20413;-65
2022/02/13 12:11:28;;;;;;;;;;;;;;;1.14;73.73;100920.03;5092469;28;19916;-66
2022/02/13 12:13:53;;;;;;;;;;;;;;;1.07;73.26;100905.66;5092651;28;19916;-66
2022/02/13 12:16:23;;;;;;;;;;;;;;;1.09;73.18;100911.63;5092719;28;19923;-65
2022/02/13 12:18:51;;;;;;;;;;;;;;;1.11;73.51;100920.25;5092324;28;20445;-66
2022/02/13 12:21:23;;;;;;;;;;;;;;;1.16;73.65;100923.44;5092223;28;20267;-67
2022/02/13 12:23:59;;;;;;;;;;;;;;;1.20;74.20;100922.28;5092421;28;20015;-66
2022/02/13 12:26:28;;;;;;;;;;;;;;;1.23;73.43;100927.34;5093802;28;19920;-67
2022/02/13 12:28:53;;;;;;;;;;;;;;;1.20;72.45;100917.06;5096185;28;20147;-67
2022/02/13 12:31:21;;;;;;;;;;;;;;;1.22;73.37;100920.41;5096169;28;20320;-67
2022/02/13 12:33:51;;;;;;;;;;;;;;;1.25;73.31;100907.09;5095645;28;19950;-67
2022/02/13 12:36:23;;;;;;;;;;;;;;;1.27;72.89;100892.09;5096076;28;19992;-67
2022/02/13 12:38:52;;;;;;;;;;;;;;;1.22;72.86;100909.91;5096383;28;19919;-67
2022/02/13 12:41:22;;;;;;;;;;;;;;;1.16;72.91;100910.31;5095094;28;19967;-67
2022/02/13 12:43:48;;;;;;;;;;;;;;;1.15;72.69;100913.84;5095596;28;19930;-66
2022/02/13 12:46:16;;;;;;;;;;;;;;;1.14;72.79;100906.94;5096117;28;20355;-65
2022/02/13 12:48:41;;;;;;;;;;;;;;;1.08;72.39;100910.78;5078151;28;20049;-65